createdAt,value
2023-08-02T00:02:56.629Z,1.60
2023-08-02T00:08:00.808Z,2.00
2023-08-02T00:13:03.670Z,2.00
2023-08-02T00:18:06.750Z,2.00
2023-08-02T00:23:11.078Z,2.00
2023-08-02T00:28:14.155Z,2.00
2023-08-02T00:33:17.245Z,1.40
2023-08-02T00:38:22.232Z,1.40
2023-08-02T00:43:25.066Z,1.00
2023-08-02T00:48:28.021Z,2.00
2023-08-02T00:53:32.396Z,1.60
2023-08-02T00:58:35.687Z,2.00
2023-08-02T01:03:38.735Z,2.00
2023-08-02T01:08:45.233Z,2.40
2023-08-02T01:13:51.344Z,1.20
2023-08-02T01:18:54.423Z,2.80
2023-08-02T01:23:58.705Z,1.80
2023-08-02T01:29:03.379Z,2.00
2023-08-02T01:34:06.265Z,1.00
2023-08-02T01:39:10.392Z,2.00
2023-08-02T01:44:13.345Z,2.00
2023-08-02T01:49:16.291Z,1.20
2023-08-02T01:54:21.443Z,1.00
2023-08-02T01:59:24.369Z,1.20
2023-08-02T02:04:27.453Z,1.80
2023-08-02T02:09:31.884Z,1.80
2023-08-02T02:14:34.767Z,1.60
2023-08-02T02:19:37.556Z,1.00
2023-08-02T02:24:41.766Z,1.80
2023-08-02T02:29:44.761Z,2.00
2023-08-02T02:34:47.633Z,2.00
2023-08-02T02:39:52.070Z,2.40
2023-08-02T02:44:55.120Z,2.00
2023-08-02T02:49:59.588Z,1.20
2023-08-02T02:55:03.743Z,2.00
2023-08-02T03:00:09.687Z,2.00
2023-08-02T03:05:12.550Z,1.80
2023-08-02T03:10:16.793Z,1.80
2023-08-02T03:15:19.673Z,1.00
2023-08-02T03:20:22.474Z,1.20
2023-08-02T03:25:26.776Z,2.00
2023-08-02T03:30:29.992Z,2.00
2023-08-02T03:35:32.919Z,2.80
2023-08-02T03:40:37.135Z,2.00
2023-08-02T03:45:40.003Z,2.40
2023-08-02T03:50:42.898Z,2.60
2023-08-02T03:55:47.148Z,2.80
2023-08-02T04:00:50.038Z,2.00
2023-08-02T04:05:52.840Z,2.60
2023-08-02T04:10:57.087Z,1.40
2023-08-02T04:16:00.053Z,1.60
2023-08-02T04:21:02.971Z,1.40
2023-08-02T04:26:12.192Z,2.00
2023-08-02T04:31:15.173Z,2.60
2023-08-02T04:36:18.137Z,2.00
2023-08-02T04:41:22.353Z,1.60
2023-08-02T04:46:27.486Z,1.20
2023-08-02T04:51:30.467Z,2.60
2023-08-02T04:56:34.867Z,3.00
2023-08-02T05:01:37.996Z,2.00
2023-08-02T05:06:42.112Z,3.00
2023-08-02T05:11:47.166Z,2.40
2023-08-02T05:16:50.196Z,2.00
2023-08-02T05:21:54.613Z,3.80
2023-08-02T05:26:58.883Z,2.00
2023-08-02T05:32:02.201Z,1.00
2023-08-02T05:37:06.678Z,2.00
2023-08-02T05:42:11.575Z,2.00
2023-08-02T05:47:14.760Z,2.40
2023-08-02T05:52:22.401Z,1.00
2023-08-02T05:57:28.495Z,1.20
2023-08-02T06:02:31.727Z,3.00
2023-08-02T06:07:34.923Z,2.00
2023-08-02T06:12:39.250Z,2.60
2023-08-02T06:17:42.182Z,2.40
2023-08-02T06:22:45.048Z,2.00
2023-08-02T06:27:49.364Z,2.00
2023-08-02T06:32:52.322Z,3.00
2023-08-02T06:37:55.344Z,4.60
2023-08-02T06:42:59.514Z,3.00
2023-08-02T06:48:02.523Z,5.40
2023-08-02T06:53:08.641Z,3.60
2023-08-02T06:58:19.812Z,5.80
2023-08-02T07:03:27.816Z,5.00
2023-08-02T07:08:31.022Z,5.60
2023-08-02T07:13:37.007Z,5.40
2023-08-02T07:18:40.321Z,5.00
2023-08-02T07:23:43.570Z,3.80
2023-08-02T07:28:48.945Z,5.00
2023-08-02T07:33:53.786Z,2.40
2023-08-02T07:38:57.348Z,4.60
2023-08-02T07:44:01.806Z,3.60
2023-08-02T07:49:05.329Z,5.00
2023-08-02T07:54:13.848Z,4.20
2023-08-02T07:59:21.489Z,3.00
2023-08-02T08:04:24.681Z,5.00
2023-08-02T08:09:27.683Z,3.20
2023-08-02T08:14:32.261Z,5.00
2023-08-02T08:19:35.424Z,3.00
2023-08-02T08:24:38.349Z,3.80
2023-08-02T08:29:42.614Z,4.20
2023-08-02T08:34:45.455Z,3.00
2023-08-02T08:39:51.561Z,4.00
2023-08-02T08:45:04.939Z,3.40
2023-08-02T08:50:09.730Z,4.20
2023-08-02T08:55:12.567Z,4.20
2023-08-02T09:00:17.628Z,4.40
2023-08-02T09:05:20.897Z,3.00
2023-08-02T09:10:23.833Z,3.00
2023-08-02T09:15:28.380Z,3.00
2023-08-02T09:20:31.255Z,5.00
2023-08-02T09:25:34.165Z,3.80
2023-08-02T09:30:38.652Z,3.00
2023-08-02T09:35:51.525Z,4.60
2023-08-02T09:41:35.929Z,2.80
2023-08-02T09:46:27.239Z,3.40
2023-08-02T09:51:40.432Z,2.00
2023-08-02T09:56:43.974Z,2.60
2023-08-02T10:01:48.886Z,2.20
2023-08-02T10:06:54.443Z,5.00
2023-08-02T10:12:00.055Z,5.00
2023-08-02T10:17:04.791Z,3.00
2023-08-02T10:22:07.929Z,2.60
2023-08-02T10:27:11.145Z,2.60
2023-08-02T10:32:16.225Z,5.00
2023-08-02T10:37:20.530Z,3.00
2023-08-02T10:42:24.866Z,3.00
2023-08-02T10:47:29.689Z,14.40
2023-08-02T10:52:33.416Z,42.75
2023-08-02T10:57:36.537Z,66.67
2023-08-02T11:02:48.328Z,83.25
2023-08-02T11:08:01.408Z,75.50
2023-08-02T11:13:04.564Z,77.50
2023-08-02T11:18:10.669Z,74.50
2023-08-02T11:23:23.635Z,71.00
2023-08-02T11:28:26.664Z,66.75
2023-08-02T11:33:31.077Z,72.00
2023-08-02T11:38:34.147Z,69.50
2023-08-02T11:43:37.438Z,68.33
2023-08-02T11:48:42.068Z,68.67
2023-08-02T11:53:49.812Z,68.33
2023-08-02T11:58:52.774Z,68.00
2023-08-02T12:03:58.061Z,61.33
2023-08-02T12:09:03.198Z,62.67
2023-08-02T12:14:07.478Z,59.00
2023-08-02T12:19:11.695Z,61.00
2023-08-02T12:24:14.984Z,55.67
2023-08-02T12:29:24.467Z,62.33
2023-08-02T12:34:29.364Z,55.00
2023-08-02T12:39:32.217Z,56.33
2023-08-02T12:44:35.180Z,57.00
2023-08-02T12:49:39.428Z,52.25
2023-08-02T12:54:42.694Z,44.25
2023-08-02T12:59:45.774Z,43.25
2023-08-02T13:04:50.215Z,40.50
2023-08-02T13:09:53.131Z,44.00
2023-08-02T13:14:56.515Z,35.75
2023-08-02T13:20:01.023Z,36.00
2023-08-02T13:25:05.048Z,31.25
2023-08-02T13:30:09.286Z,31.25
2023-08-02T13:35:13.996Z,27.60
2023-08-02T13:40:17.359Z,21.40
2023-08-02T13:45:20.676Z,21.20
2023-08-02T13:50:24.927Z,23.40
2023-08-02T13:55:28.069Z,22.40
2023-08-02T14:00:30.998Z,19.60
2023-08-02T14:05:35.503Z,17.60
2023-08-02T14:10:40.331Z,18.40
2023-08-02T14:15:43.491Z,17.00
2023-08-02T14:20:47.909Z,18.00
2023-08-02T14:25:50.973Z,15.80
2023-08-02T14:30:53.904Z,17.80
2023-08-02T14:35:58.481Z,15.00
2023-08-02T14:41:02.603Z,14.80
2023-08-02T14:46:05.847Z,13.20
2023-08-02T14:51:10.455Z,12.00
2023-08-02T14:56:14.470Z,15.00
2023-08-02T15:01:17.560Z,10.20
2023-08-02T15:06:26.235Z,11.40
2023-08-02T15:11:29.754Z,9.60
2023-08-02T15:16:33.089Z,8.20
2023-08-02T15:21:39.644Z,8.00
2023-08-02T15:26:42.980Z,9.00
2023-08-02T15:31:46.302Z,8.40
2023-08-02T15:36:50.915Z,7.20
2023-08-02T15:41:53.821Z,8.00
2023-08-02T15:46:56.972Z,7.40
2023-08-02T15:52:01.336Z,7.20
2023-08-02T15:57:04.763Z,9.00
2023-08-02T16:02:08.312Z,6.60
2023-08-02T16:07:12.777Z,4.00
2023-08-02T16:12:17.339Z,6.00
2023-08-02T16:17:22.520Z,4.00
2023-08-02T16:22:26.838Z,2.20
2023-08-02T16:27:29.733Z,3.00
2023-08-02T16:32:32.646Z,3.80
2023-08-02T16:37:37.081Z,2.60
2023-08-02T16:42:40.078Z,2.20
2023-08-02T16:47:43.180Z,3.00
2023-08-02T16:52:47.501Z,2.80
2023-08-02T16:57:50.381Z,1.40
2023-08-02T17:02:53.315Z,0.00
2023-08-02T17:07:57.853Z,1.00
2023-08-02T17:13:00.896Z,1.00
2023-08-02T17:18:04.690Z,1.00
2023-08-02T17:23:09.547Z,0.40
2023-08-02T17:28:12.433Z,0.20
2023-08-02T17:33:15.474Z,1.00
2023-08-02T17:38:19.867Z,0.00
2023-08-02T17:43:23.189Z,0.00
2023-08-02T17:48:26.152Z,0.00
2023-08-02T17:53:33.390Z,0.00
2023-08-02T17:58:38.309Z,0.00
2023-08-02T18:03:42.823Z,0.00
2023-08-02T18:08:48.486Z,2.00
2023-08-02T18:13:51.627Z,1.00
2023-08-02T18:18:54.620Z,0.00
2023-08-02T18:23:59.175Z,0.60
2023-08-02T18:29:02.218Z,1.20
2023-08-02T18:34:05.110Z,1.00
2023-08-02T18:39:11.056Z,1.00
2023-08-02T18:44:14.020Z,1.20
2023-08-02T18:49:16.941Z,1.60
2023-08-02T18:54:21.531Z,1.00
2023-08-02T18:59:24.388Z,1.00
2023-08-02T19:04:27.197Z,2.40
2023-08-02T19:09:32.040Z,1.00
2023-08-02T19:14:35.045Z,1.60
2023-08-02T19:19:37.945Z,1.80
2023-08-02T19:24:43.925Z,2.00
2023-08-02T19:29:46.804Z,1.00
2023-08-02T19:34:52.466Z,1.00
2023-08-02T19:39:56.714Z,1.00
2023-08-02T19:44:59.891Z,2.00
2023-08-02T19:50:02.811Z,1.00
2023-08-02T19:55:08.488Z,1.00
2023-08-02T20:00:18.880Z,1.00
2023-08-02T20:05:54.676Z,1.00
2023-08-02T20:11:01.198Z,1.00
2023-08-02T20:16:05.940Z,1.00
2023-08-02T20:21:20.958Z,2.00
2023-08-02T20:26:26.791Z,1.00
2023-08-02T20:31:35.387Z,0.80
2023-08-02T20:36:38.364Z,2.60
2023-08-02T20:41:43.225Z,2.00
2023-08-02T20:46:46.419Z,1.00
2023-08-02T20:51:49.619Z,1.00
2023-08-02T20:56:54.726Z,1.00
2023-08-02T21:01:57.678Z,2.00
2023-08-02T21:07:11.282Z,1.00
2023-08-02T21:12:16.249Z,0.80
2023-08-02T21:17:20.396Z,1.20
2023-08-02T21:22:23.237Z,1.00
2023-08-02T21:27:28.208Z,1.00
2023-08-02T21:32:41.043Z,2.00
2023-08-02T21:37:44.810Z,1.40
2023-08-02T21:42:49.209Z,2.00
2023-08-02T21:47:52.290Z,1.00
2023-08-02T21:52:55.164Z,0.80
2023-08-02T21:58:00.482Z,1.60
2023-08-02T22:03:03.535Z,2.00
2023-08-02T22:08:10.475Z,1.00
2023-08-02T22:13:15.707Z,2.00
2023-08-02T22:18:18.642Z,2.00
2023-08-02T22:23:21.502Z,1.80
2023-08-02T22:28:25.821Z,1.00
2023-08-02T22:33:28.700Z,2.00
2023-08-02T22:38:46.806Z,2.00
2023-08-02T22:43:52.756Z,2.00
2023-08-02T22:50:20.019Z,3.40
2023-08-02T22:54:21.011Z,4.00
2023-08-02T22:59:25.266Z,2.00
2023-08-02T23:04:28.325Z,2.80
2023-08-02T23:09:31.259Z,4.60
2023-08-02T23:14:35.489Z,4.20
2023-08-02T23:19:38.323Z,6.60
2023-08-02T23:24:42.772Z,2.00
2023-08-02T23:29:47.062Z,2.40
2023-08-02T23:34:49.947Z,2.00
2023-08-02T23:39:52.806Z,2.00
2023-08-02T23:44:57.007Z,2.40
2023-08-02T23:49:59.876Z,2.80
2023-08-02T23:55:02.964Z,2.00
